sensor_id;sensor_type;location;lat;lon;timestamp;P1;durP1;ratioP1;P2;durP2;ratioP2
20314;SDS011;10315;50.958;13.080;2022-09-04T00:04:40;6.75;;;4.10;;
20314;SDS011;10315;50.958;13.080;2022-09-04T00:14:48;6.50;;;4.63;;
20314;SDS011;10315;50.958;13.080;2022-09-04T00:24:56;6.00;;;3.87;;
20314;SDS011;10315;50.958;13.080;2022-09-04T00:35:06;7.40;;;5.23;;
20314;SDS011;10315;50.958;13.080;2022-09-04T00:45:21;7.78;;;4.03;;
20314;SDS011;10315;50.958;13.080;2022-09-04T00:55:46;6.70;;;4.22;;
20314;SDS011;10315;50.958;13.080;2022-09-04T01:06:00;6.67;;;4.00;;
20314;SDS011;10315;50.958;13.080;2022-09-04T01:16:14;6.20;;;4.20;;
20314;SDS011;10315;50.958;13.080;2022-09-04T01:26:26;7.43;;;4.20;;
20314;SDS011;10315;50.958;13.080;2022-09-04T01:36:34;5.80;;;3.90;;
20314;SDS011;10315;50.958;13.080;2022-09-04T01:46:50;8.60;;;4.25;;
20314;SDS011;10315;50.958;13.080;2022-09-04T01:57:04;9.53;;;4.47;;
20314;SDS011;10315;50.958;13.080;2022-09-04T02:07:15;9.60;;;4.70;;
20314;SDS011;10315;50.958;13.080;2022-09-04T02:17:26;7.67;;;4.67;;
20314;SDS011;10315;50.958;13.080;2022-09-04T02:27:42;8.07;;;4.83;;
20314;SDS011;10315;50.958;13.080;2022-09-04T02:37:56;5.93;;;4.53;;
20314;SDS011;10315;50.958;13.080;2022-09-04T02:48:10;11.93;;;5.30;;
20314;SDS011;10315;50.958;13.080;2022-09-04T02:58:18;7.10;;;4.50;;
20314;SDS011;10315;50.958;13.080;2022-09-04T03:08:31;5.97;;;4.07;;
20314;SDS011;10315;50.958;13.080;2022-09-04T03:18:50;5.43;;;4.10;;
20314;SDS011;10315;50.958;13.080;2022-09-04T03:28:59;9.27;;;5.00;;
20314;SDS011;10315;50.958;13.080;2022-09-04T03:39:06;7.40;;;4.07;;
20314;SDS011;10315;50.958;13.080;2022-09-04T03:49:16;4.87;;;4.37;;
20314;SDS011;10315;50.958;13.080;2022-09-04T03:59:33;5.50;;;4.50;;
20314;SDS011;10315;50.958;13.080;2022-09-04T04:09:56;7.60;;;4.13;;
20314;SDS011;10315;50.958;13.080;2022-09-04T04:20:09;6.10;;;3.87;;
20314;SDS011;10315;50.958;13.080;2022-09-04T04:30:23;5.43;;;3.30;;
20314;SDS011;10315;50.958;13.080;2022-09-04T04:40:31;6.63;;;3.77;;
20314;SDS011;10315;50.958;13.080;2022-09-04T04:50:47;5.07;;;3.87;;
20314;SDS011;10315;50.958;13.080;2022-09-04T05:00:57;7.23;;;4.20;;
20314;SDS011;10315;50.958;13.080;2022-09-04T05:11:09;6.70;;;4.20;;
20314;SDS011;10315;50.958;13.080;2022-09-04T05:21:28;6.55;;;4.97;;
20314;SDS011;10315;50.958;13.080;2022-09-04T05:31:39;9.17;;;4.30;;
20314;SDS011;10315;50.958;13.080;2022-09-04T05:41:53;5.78;;;4.20;;
20314;SDS011;10315;50.958;13.080;2022-09-04T06:02:43;4.88;;;3.50;;
20314;SDS011;10315;50.958;13.080;2022-09-04T06:13:24;6.15;;;4.20;;
20314;SDS011;10315;50.958;13.080;2022-09-04T06:23:48;6.25;;;4.25;;
20314;SDS011;10315;50.958;13.080;2022-09-04T06:34:14;4.80;;;3.58;;
20314;SDS011;10315;50.958;13.080;2022-09-04T06:44:25;4.38;;;3.88;;
20314;SDS011;10315;50.958;13.080;2022-09-04T06:54:45;4.50;;;3.22;;
20314;SDS011;10315;50.958;13.080;2022-09-04T07:04:58;4.50;;;3.10;;
20314;SDS011;10315;50.958;13.080;2022-09-04T07:15:24;5.00;;;2.65;;
20314;SDS011;10315;50.958;13.080;2022-09-04T07:25:42;3.50;;;2.63;;
20314;SDS011;10315;50.958;13.080;2022-09-04T07:35:53;6.72;;;2.53;;
20314;SDS011;10315;50.958;13.080;2022-09-04T07:46:01;2.47;;;2.28;;
20314;SDS011;10315;50.958;13.080;2022-09-04T07:56:11;4.22;;;2.65;;
20314;SDS011;10315;50.958;13.080;2022-09-04T08:06:22;3.45;;;2.10;;
20314;SDS011;10315;50.958;13.080;2022-09-04T08:16:34;2.67;;;2.40;;
20314;SDS011;10315;50.958;13.080;2022-09-04T08:26:46;2.22;;;2.13;;
20314;SDS011;10315;50.958;13.080;2022-09-04T08:36:59;2.72;;;2.50;;
20314;SDS011;10315;50.958;13.080;2022-09-04T08:47:25;4.90;;;2.40;;
20314;SDS011;10315;50.958;13.080;2022-09-04T08:58:09;4.78;;;2.50;;
20314;SDS011;10315;50.958;13.080;2022-09-04T09:08:39;4.53;;;2.30;;
20314;SDS011;10315;50.958;13.080;2022-09-04T09:19:20;2.38;;;2.10;;
20314;SDS011;10315;50.958;13.080;2022-09-04T09:29:47;3.25;;;2.50;;
20314;SDS011;10315;50.958;13.080;2022-09-04T09:40:08;2.83;;;2.20;;
20314;SDS011;10315;50.958;13.080;2022-09-04T09:50:29;3.92;;;2.35;;
20314;SDS011;10315;50.958;13.080;2022-09-04T10:00:52;4.35;;;2.63;;
20314;SDS011;10315;50.958;13.080;2022-09-04T10:21:44;5.60;;;2.80;;
20314;SDS011;10315;50.958;13.080;2022-09-04T10:32:23;4.00;;;2.63;;
20314;SDS011;10315;50.958;13.080;2022-09-04T10:42:44;4.13;;;2.55;;
20314;SDS011;10315;50.958;13.080;2022-09-04T10:52:58;4.43;;;2.50;;
20314;SDS011;10315;50.958;13.080;2022-09-04T11:35:26;5.97;;;3.00;;
20314;SDS011;10315;50.958;13.080;2022-09-04T11:45:53;2.83;;;2.55;;
20314;SDS011;10315;50.958;13.080;2022-09-04T11:56:23;3.08;;;2.58;;
20314;SDS011;10315;50.958;13.080;2022-09-04T12:06:55;2.65;;;2.45;;
20314;SDS011;10315;50.958;13.080;2022-09-04T12:17:21;2.45;;;2.25;;
20314;SDS011;10315;50.958;13.080;2022-09-04T12:27:56;2.75;;;2.55;;
20314;SDS011;10315;50.958;13.080;2022-09-04T12:38:33;3.58;;;2.40;;
20314;SDS011;10315;50.958;13.080;2022-09-04T12:49:01;4.55;;;2.70;;
20314;SDS011;10315;50.958;13.080;2022-09-04T12:59:17;4.30;;;2.08;;
20314;SDS011;10315;50.958;13.080;2022-09-04T13:09:33;3.60;;;2.47;;
20314;SDS011;10315;50.958;13.080;2022-09-04T13:19:45;4.57;;;2.40;;
20314;SDS011;10315;50.958;13.080;2022-09-04T13:29:58;4.57;;;2.50;;
20314;SDS011;10315;50.958;13.080;2022-09-04T13:40:09;2.50;;;2.30;;
20314;SDS011;10315;50.958;13.080;2022-09-04T13:50:23;4.78;;;3.00;;
20314;SDS011;10315;50.958;13.080;2022-09-04T14:00:31;3.65;;;2.90;;
20314;SDS011;10315;50.958;13.080;2022-09-04T14:10:41;3.00;;;2.70;;
20314;SDS011;10315;50.958;13.080;2022-09-04T14:20:59;3.08;;;2.70;;
20314;SDS011;10315;50.958;13.080;2022-09-04T14:31:08;4.53;;;2.53;;
20314;SDS011;10315;50.958;13.080;2022-09-04T14:41:19;4.75;;;2.22;;
20314;SDS011;10315;50.958;13.080;2022-09-04T14:51:33;5.53;;;2.60;;
20314;SDS011;10315;50.958;13.080;2022-09-04T15:01:38;2.70;;;2.47;;
20314;SDS011;10315;50.958;13.080;2022-09-04T15:12:11;2.58;;;2.20;;
20314;SDS011;10315;50.958;13.080;2022-09-04T15:22:18;4.75;;;2.40;;
20314;SDS011;10315;50.958;13.080;2022-09-04T15:32:26;2.42;;;2.22;;
20314;SDS011;10315;50.958;13.080;2022-09-04T15:42:33;3.13;;;2.40;;
20314;SDS011;10315;50.958;13.080;2022-09-04T15:52:42;3.67;;;2.42;;
20314;SDS011;10315;50.958;13.080;2022-09-04T16:02:50;5.10;;;2.33;;
20314;SDS011;10315;50.958;13.080;2022-09-04T16:13:00;3.05;;;2.70;;
20314;SDS011;10315;50.958;13.080;2022-09-04T16:23:06;3.15;;;2.85;;
20314;SDS011;10315;50.958;13.080;2022-09-04T16:33:20;3.13;;;2.90;;
20314;SDS011;10315;50.958;13.080;2022-09-04T16:43:25;3.20;;;2.90;;
20314;SDS011;10315;50.958;13.080;2022-09-04T16:53:32;5.35;;;2.97;;
20314;SDS011;10315;50.958;13.080;2022-09-04T17:03:39;3.35;;;3.00;;
20314;SDS011;10315;50.958;13.080;2022-09-04T17:13:46;3.65;;;2.75;;
20314;SDS011;10315;50.958;13.080;2022-09-04T17:23:54;4.85;;;3.33;;
20314;SDS011;10315;50.958;13.080;2022-09-04T17:34:04;5.18;;;3.00;;
20314;SDS011;10315;50.958;13.080;2022-09-04T17:54:46;5.38;;;2.90;;
20314;SDS011;10315;50.958;13.080;2022-09-04T18:04:50;2.97;;;2.75;;
20314;SDS011;10315;50.958;13.080;2022-09-04T18:14:57;4.43;;;2.90;;
20314;SDS011;10315;50.958;13.080;2022-09-04T18:25:09;4.28;;;3.20;;
20314;SDS011;10315;50.958;13.080;2022-09-04T18:35:18;3.45;;;2.97;;
20314;SDS011;10315;50.958;13.080;2022-09-04T18:45:24;4.10;;;3.00;;
20314;SDS011;10315;50.958;13.080;2022-09-04T18:55:33;4.07;;;3.42;;
20314;SDS011;10315;50.958;13.080;2022-09-04T19:05:37;4.40;;;3.53;;
20314;SDS011;10315;50.958;13.080;2022-09-04T19:15:47;4.15;;;3.30;;
20314;SDS011;10315;50.958;13.080;2022-09-04T19:25:57;5.53;;;3.80;;
20314;SDS011;10315;50.958;13.080;2022-09-04T19:36:08;5.95;;;3.75;;
20314;SDS011;10315;50.958;13.080;2022-09-04T19:46:17;8.15;;;4.55;;
20314;SDS011;10315;50.958;13.080;2022-09-04T19:56:34;9.75;;;4.50;;
20314;SDS011;10315;50.958;13.080;2022-09-04T20:06:45;6.85;;;4.47;;
20314;SDS011;10315;50.958;13.080;2022-09-04T20:16:58;6.78;;;4.75;;
20314;SDS011;10315;50.958;13.080;2022-09-04T20:27:10;5.13;;;4.63;;
20314;SDS011;10315;50.958;13.080;2022-09-04T20:37:20;7.30;;;4.55;;
20314;SDS011;10315;50.958;13.080;2022-09-04T20:47:29;7.50;;;5.05;;
20314;SDS011;10315;50.958;13.080;2022-09-04T20:57:54;5.53;;;4.95;;
20314;SDS011;10315;50.958;13.080;2022-09-04T21:08:07;7.10;;;4.97;;
20314;SDS011;10315;50.958;13.080;2022-09-04T21:28:56;6.70;;;5.35;;
20314;SDS011;10315;50.958;13.080;2022-09-04T21:39:23;6.18;;;5.22;;
20314;SDS011;10315;50.958;13.080;2022-09-04T21:50:08;9.57;;;6.25;;
20314;SDS011;10315;50.958;13.080;2022-09-04T22:00:43;8.65;;;5.90;;
20314;SDS011;10315;50.958;13.080;2022-09-04T22:11:10;8.38;;;6.38;;
20314;SDS011;10315;50.958;13.080;2022-09-04T22:21:28;9.90;;;7.03;;
20314;SDS011;10315;50.958;13.080;2022-09-04T22:32:06;7.88;;;6.60;;
20314;SDS011;10315;50.958;13.080;2022-09-04T22:42:42;13.52;;;7.40;;
20314;SDS011;10315;50.958;13.080;2022-09-04T22:52:57;10.85;;;7.57;;
20314;SDS011;10315;50.958;13.080;2022-09-04T23:03:20;10.45;;;7.63;;
20314;SDS011;10315;50.958;13.080;2022-09-04T23:35:04;12.35;;;8.05;;
20314;SDS011;10315;50.958;13.080;2022-09-04T23:45:24;14.32;;;8.13;;
20314;SDS011;10315;50.958;13.080;2022-09-04T23:55:51;10.82;;;8.02;;
